VRG2162 SBGL-SBFI
Flight info
| Callsign | VRG2162 |
|---|---|
| Flight time | N/A |
| Altitude | 36000 |
| Route | NAXOP UZ45 UKDAN UM415 ASETA UZ152 UPORU |
| Aircraft | B737/M-SDE2E3FGHIRWXY/LB1 |
Departure
| Time | 2026-04-30 12:39 |
|---|---|
| Airport | Rio Galeão – Tom Jobim International Airport (SBGL) |
Arrival
| Time | N/A |
|---|---|
| Airport | Cataratas International Airport (SBFI) |
| Time | Latitude | Longitude | Altitude | Speed | Heading |
|---|---|---|---|---|---|
| 2026-04-30 12:22 | -22.81620 | -43.24636 | 25 ft | 0 kts | 11° |
| 2026-04-30 12:26 | -22.81622 | -43.24636 | 25 ft | 2 kts | 11° |
| 2026-04-30 12:26 | -22.81638 | -43.24640 | 29 ft | 2 kts | 12° |
| 2026-04-30 12:27 | -22.81655 | -43.24643 | 27 ft | 2 kts | 12° |
| 2026-04-30 12:27 | -22.81671 | -43.24647 | 28 ft | 2 kts | 11° |
| 2026-04-30 12:27 | -22.81687 | -43.24650 | 30 ft | 2 kts | 7° |
| 2026-04-30 12:27 | -22.81704 | -43.24650 | 29 ft | 2 kts | 325° |
| 2026-04-30 12:28 | -22.81708 | -43.24647 | 29 ft | 0 kts | 307° |
| 2026-04-30 12:31 | -22.81701 | -43.24657 | 29 ft | 6 kts | 304° |
| 2026-04-30 12:31 | -22.81655 | -43.24730 | 28 ft | 17 kts | 304° |
| 2026-04-30 12:31 | -22.81586 | -43.24841 | 29 ft | 17 kts | 302° |
| 2026-04-30 12:32 | -22.81512 | -43.24941 | 29 ft | 18 kts | 299° |
| 2026-04-30 12:32 | -22.81448 | -43.25070 | 26 ft | 20 kts | 300° |
| 2026-04-30 12:32 | -22.81507 | -43.25176 | 29 ft | 19 kts | 211° |
| 2026-04-30 12:32 | -22.81616 | -43.25257 | 29 ft | 19 kts | 215° |
| 2026-04-30 12:33 | -22.81717 | -43.25341 | 25 ft | 18 kts | 239° |
| 2026-04-30 12:33 | -22.81673 | -43.25456 | 28 ft | 17 kts | 313° |
| 2026-04-30 12:33 | -22.81602 | -43.25559 | 28 ft | 17 kts | 305° |
| 2026-04-30 12:33 | -22.81534 | -43.25659 | 26 ft | 16 kts | 305° |
| 2026-04-30 12:34 | -22.81472 | -43.25756 | 25 ft | 16 kts | 305° |
| 2026-04-30 12:34 | -22.81411 | -43.25850 | 28 ft | 15 kts | 305° |
| 2026-04-30 12:34 | -22.81353 | -43.25940 | 27 ft | 14 kts | 305° |
| 2026-04-30 12:34 | -22.81297 | -43.26026 | 29 ft | 14 kts | 305° |
| 2026-04-30 12:35 | -22.81242 | -43.26108 | 25 ft | 13 kts | 309° |
| 2026-04-30 12:35 | -22.81187 | -43.26184 | 25 ft | 13 kts | 307° |
| 2026-04-30 12:35 | -22.81152 | -43.26234 | 25 ft | 12 kts | 307° |
| 2026-04-30 12:35 | -22.81119 | -43.26311 | 25 ft | 9 kts | 280° |
| 2026-04-30 12:36 | -22.81126 | -43.26331 | 26 ft | 0 kts | 224° |
| 2026-04-30 12:37 | -22.81161 | -43.26354 | 25 ft | 8 kts | 190° |
| 2026-04-30 12:37 | -22.81197 | -43.26343 | 26 ft | 8 kts | 155° |
| 2026-04-30 12:37 | -22.81250 | -43.26331 | 28 ft | 8 kts | 172° |
| 2026-04-30 12:38 | -22.81292 | -43.26296 | 25 ft | 8 kts | 126° |
| 2026-04-30 12:38 | -22.81381 | -43.26163 | 25 ft | 58 kts | 126° |
| 2026-04-30 12:38 | -22.81800 | -43.25538 | 28 ft | 143 kts | 126° |
| 2026-04-30 12:38 | -22.82507 | -43.24515 | 335 ft | 187 kts | 127° |
| 2026-04-30 12:39 | -22.83359 | -43.23367 | 1213 ft | 205 kts | 131° |
| 2026-04-30 12:39 | -22.83947 | -43.21935 | 2033 ft | 220 kts | 95° |
| 2026-04-30 12:39 | -22.83811 | -43.20227 | 2687 ft | 241 kts | 74° |
| 2026-04-30 12:39 | -22.83157 | -43.18464 | 3246 ft | 258 kts | 61° |
| 2026-04-30 12:40 | -22.82181 | -43.16833 | 4224 ft | 259 kts | 54° |
| 2026-04-30 12:40 | -22.81206 | -43.15177 | 5098 ft | 262 kts | 58° |
| 2026-04-30 12:40 | -22.80210 | -43.13466 | 5800 ft | 272 kts | 52° |
| 2026-04-30 12:40 | -22.79151 | -43.11813 | 7113 ft | 261 kts | 58° |
| 2026-04-30 12:41 | -22.78289 | -43.10109 | 8207 ft | 262 kts | 63° |
| 2026-04-30 12:41 | -22.77488 | -43.08313 | 9130 ft | 268 kts | 65° |
| 2026-04-30 12:41 | -22.76701 | -43.06459 | 10054 ft | 273 kts | 66° |
| 2026-04-30 12:41 | -22.76276 | -43.04446 | 10846 ft | 280 kts | 92° |
| 2026-04-30 12:42 | -22.76786 | -43.02409 | 11693 ft | 285 kts | 122° |
| 2026-04-30 12:42 | -22.78171 | -43.00875 | 12502 ft | 288 kts | 148° |
| 2026-04-30 12:42 | -22.79906 | -42.99756 | 13330 ft | 293 kts | 152° |
| 2026-04-30 12:42 | -22.81705 | -42.98645 | 14102 ft | 300 kts | 152° |
| 2026-04-30 12:43 | -22.83598 | -42.97669 | 14809 ft | 303 kts | 169° |
| 2026-04-30 12:43 | -22.85669 | -42.97557 | 15546 ft | 299 kts | 194° |
| 2026-04-30 12:43 | -22.87639 | -42.98376 | 15846 ft | 314 kts | 217° |
| 2026-04-30 12:43 | -22.89427 | -42.99836 | 16040 ft | 336 kts | 222° |
| 2026-04-30 12:44 | -22.91297 | -43.01492 | 16195 ft | 359 kts | 223° |
| 2026-04-30 12:44 | -22.93283 | -43.03264 | 16334 ft | 379 kts | 222° |
| 2026-04-30 12:44 | -22.95386 | -43.05111 | 16458 ft | 397 kts | 221° |
| 2026-04-30 12:44 | -22.97586 | -43.07016 | 16694 ft | 409 kts | 221° |
| 2026-04-30 12:45 | -22.99830 | -43.08949 | 17126 ft | 414 kts | 221° |
| 2026-04-30 12:45 | -23.02080 | -43.10896 | 17703 ft | 414 kts | 222° |
| 2026-04-30 12:45 | -23.04328 | -43.12858 | 18237 ft | 415 kts | 222° |
| 2026-04-30 12:45 | -23.06581 | -43.14832 | 18670 ft | 417 kts | 222° |
| 2026-04-30 12:46 | -23.08847 | -43.16819 | 19060 ft | 420 kts | 223° |
| 2026-04-30 12:46 | -23.11129 | -43.18820 | 19445 ft | 422 kts | 223° |
| 2026-04-30 12:46 | -23.13420 | -43.20829 | 19819 ft | 425 kts | 223° |
| 2026-04-30 12:46 | -23.15723 | -43.22848 | 20202 ft | 427 kts | 223° |
| 2026-04-30 12:47 | -23.18045 | -43.24884 | 20565 ft | 429 kts | 223° |
| 2026-04-30 12:47 | -23.20352 | -43.26907 | 20922 ft | 431 kts | 223° |
| 2026-04-30 12:47 | -23.22693 | -43.28961 | 21280 ft | 433 kts | 223° |
| 2026-04-30 12:47 | -23.25044 | -43.31025 | 21626 ft | 436 kts | 223° |
| 2026-04-30 12:48 | -23.27410 | -43.33103 | 21961 ft | 438 kts | 223° |
| 2026-04-30 12:48 | -23.29791 | -43.35196 | 22285 ft | 440 kts | 223° |
| 2026-04-30 12:48 | -23.32083 | -43.37398 | 22575 ft | 438 kts | 232° |
| 2026-04-30 12:48 | -23.33792 | -43.40102 | 22890 ft | 432 kts | 246° |
| 2026-04-30 12:49 | -23.34805 | -43.43155 | 23248 ft | 428 kts | 257° |
| 2026-04-30 12:49 | -23.35540 | -43.46294 | 23545 ft | 429 kts | 258° |
| 2026-04-30 12:49 | -23.36243 | -43.49467 | 23773 ft | 432 kts | 259° |
| 2026-04-30 12:49 | -23.36937 | -43.52612 | 23991 ft | 434 kts | 259° |
| 2026-04-30 12:50 | -23.37654 | -43.55803 | 24215 ft | 435 kts | 258° |
| 2026-04-30 12:50 | -23.38385 | -43.59003 | 24445 ft | 436 kts | 258° |
| 2026-04-30 12:50 | -23.39129 | -43.62216 | 24655 ft | 438 kts | 258° |
| 2026-04-30 12:50 | -23.39880 | -43.65439 | 24855 ft | 440 kts | 258° |
| 2026-04-30 12:51 | -23.40635 | -43.68673 | 25075 ft | 441 kts | 258° |
| 2026-04-30 12:51 | -23.41392 | -43.71915 | 25301 ft | 441 kts | 258° |
| 2026-04-30 12:51 | -23.42149 | -43.75162 | 25497 ft | 443 kts | 258° |
| 2026-04-30 12:51 | -23.42907 | -43.78418 | 25680 ft | 444 kts | 258° |
| 2026-04-30 12:52 | -23.43667 | -43.81689 | 25884 ft | 445 kts | 258° |
| 2026-04-30 12:52 | -23.44428 | -43.84964 | 26070 ft | 447 kts | 258° |
| 2026-04-30 12:52 | -23.45191 | -43.88255 | 26246 ft | 448 kts | 258° |
| 2026-04-30 12:52 | -23.45945 | -43.91510 | 26427 ft | 449 kts | 258° |
| 2026-04-30 12:53 | -23.46709 | -43.94813 | 26618 ft | 449 kts | 258° |
| 2026-04-30 12:53 | -23.47471 | -43.98124 | 26778 ft | 451 kts | 258° |
| 2026-04-30 12:53 | -23.48234 | -44.01443 | 26936 ft | 452 kts | 258° |
| 2026-04-30 12:53 | -23.48995 | -44.04765 | 27076 ft | 453 kts | 258° |
| 2026-04-30 12:54 | -23.49760 | -44.08098 | 27234 ft | 454 kts | 258° |
| 2026-04-30 12:54 | -23.50527 | -44.11445 | 27384 ft | 454 kts | 258° |
| 2026-04-30 12:54 | -23.51293 | -44.14792 | 27526 ft | 455 kts | 258° |
| 2026-04-30 12:54 | -23.52051 | -44.18099 | 27684 ft | 455 kts | 258° |
| 2026-04-30 12:55 | -23.52818 | -44.21443 | 27891 ft | 454 kts | 258° |
| 2026-04-30 12:55 | -23.53583 | -44.24772 | 28114 ft | 452 kts | 258° |
| 2026-04-30 12:55 | -23.54346 | -44.28097 | 28334 ft | 452 kts | 258° |
| 2026-04-30 12:55 | -23.55107 | -44.31419 | 28559 ft | 451 kts | 258° |
| 2026-04-30 12:56 | -23.55865 | -44.34731 | 28794 ft | 450 kts | 258° |
| 2026-04-30 12:56 | -23.56622 | -44.38045 | 29038 ft | 449 kts | 258° |
| 2026-04-30 12:56 | -23.57373 | -44.41339 | 29292 ft | 449 kts | 258° |
| 2026-04-30 12:56 | -23.58125 | -44.44638 | 29562 ft | 448 kts | 258° |
| 2026-04-30 12:57 | -23.58874 | -44.47927 | 29839 ft | 447 kts | 258° |
| 2026-04-30 12:57 | -23.59622 | -44.51212 | 30124 ft | 446 kts | 258° |
| 2026-04-30 12:57 | -23.60367 | -44.54492 | 30382 ft | 445 kts | 258° |
| 2026-04-30 12:57 | -23.61102 | -44.57728 | 30642 ft | 444 kts | 258° |
| 2026-04-30 12:58 | -23.61843 | -44.61000 | 30930 ft | 443 kts | 258° |
| 2026-04-30 12:58 | -23.62580 | -44.64251 | 31226 ft | 441 kts | 258° |
| 2026-04-30 12:58 | -23.63314 | -44.67494 | 31529 ft | 440 kts | 258° |
| 2026-04-30 12:58 | -23.64045 | -44.70728 | 31856 ft | 438 kts | 258° |
| 2026-04-30 12:59 | -23.64773 | -44.73951 | 32177 ft | 437 kts | 258° |
| 2026-04-30 12:59 | -23.65499 | -44.77168 | 32515 ft | 436 kts | 258° |
| 2026-04-30 12:59 | -23.66221 | -44.80375 | 32871 ft | 434 kts | 258° |
| 2026-04-30 12:59 | -23.66940 | -44.83566 | 33228 ft | 433 kts | 258° |
| 2026-04-30 13:00 | -23.67648 | -44.86715 | 33591 ft | 431 kts | 258° |
| 2026-04-30 13:00 | -23.68361 | -44.89890 | 33975 ft | 429 kts | 258° |
| 2026-04-30 13:00 | -23.69071 | -44.93051 | 34329 ft | 428 kts | 258° |
| 2026-04-30 13:00 | -23.69776 | -44.96196 | 34647 ft | 426 kts | 258° |
| 2026-04-30 13:01 | -23.70480 | -44.99339 | 34956 ft | 425 kts | 258° |
| 2026-04-30 13:01 | -23.71180 | -45.02469 | 35282 ft | 423 kts | 258° |
| 2026-04-30 13:01 | -23.71867 | -45.05541 | 35575 ft | 421 kts | 258° |
| 2026-04-30 13:01 | -23.72561 | -45.08649 | 35847 ft | 420 kts | 258° |
| 2026-04-30 13:02 | -23.73252 | -45.11746 | 36138 ft | 419 kts | 258° |
| 2026-04-30 13:02 | -23.73938 | -45.14825 | 36415 ft | 418 kts | 258° |
| 2026-04-30 13:02 | -23.74626 | -45.17915 | 36682 ft | 417 kts | 258° |
| 2026-04-30 13:02 | -23.75308 | -45.20982 | 36958 ft | 416 kts | 258° |
| 2026-04-30 13:03 | -23.75988 | -45.24041 | 37233 ft | 414 kts | 258° |
| 2026-04-30 13:03 | -23.76667 | -45.27100 | 37452 ft | 414 kts | 258° |
| 2026-04-30 13:03 | -23.77344 | -45.30160 | 37659 ft | 413 kts | 258° |
| 2026-04-30 13:03 | -23.78019 | -45.33213 | 37917 ft | 412 kts | 258° |
| 2026-04-30 13:04 | -23.78691 | -45.36253 | 38123 ft | 413 kts | 258° |
| 2026-04-30 13:04 | -23.79355 | -45.39264 | 38095 ft | 414 kts | 258° |
| 2026-04-30 13:04 | -23.80700 | -45.45366 | 38121 ft | 410 kts | 258° |
| 2026-04-30 13:05 | -23.82026 | -45.51378 | 38136 ft | 407 kts | 258° |
| 2026-04-30 13:06 | -23.84010 | -45.60432 | 38123 ft | 408 kts | 258° |
| 2026-04-30 13:06 | -23.85323 | -45.66427 | 38120 ft | 408 kts | 258° |
| 2026-04-30 13:07 | -23.86642 | -45.72458 | 38118 ft | 408 kts | 258° |
| 2026-04-30 13:07 | -23.87960 | -45.78497 | 38115 ft | 409 kts | 258° |
| 2026-04-30 13:08 | -23.89277 | -45.84542 | 38113 ft | 409 kts | 258° |
| 2026-04-30 13:08 | -23.90592 | -45.90590 | 38113 ft | 409 kts | 258° |
| 2026-04-30 13:09 | -23.91904 | -45.96640 | 38104 ft | 409 kts | 258° |
| 2026-04-30 13:09 | -23.93215 | -46.02695 | 38096 ft | 409 kts | 258° |
| 2026-04-30 13:10 | -23.94517 | -46.08718 | 38092 ft | 409 kts | 258° |
| 2026-04-30 13:10 | -23.95821 | -46.14765 | 38085 ft | 409 kts | 258° |
| 2026-04-30 13:11 | -23.97122 | -46.20826 | 38077 ft | 409 kts | 260° |
| 2026-04-30 13:11 | -23.97271 | -46.27005 | 38078 ft | 408 kts | 276° |
| 2026-04-30 13:12 | -23.95850 | -46.32988 | 38090 ft | 411 kts | 289° |
| 2026-04-30 13:12 | -23.93607 | -46.38763 | 38082 ft | 412 kts | 290° |
| 2026-04-30 13:13 | -23.90240 | -46.47433 | 38089 ft | 413 kts | 290° |
| 2026-04-30 13:14 | -23.86919 | -46.56124 | 38106 ft | 414 kts | 290° |
| 2026-04-30 13:14 | -23.83552 | -46.64812 | 38176 ft | 414 kts | 290° |
| 2026-04-30 13:15 | -23.79916 | -46.73338 | 38189 ft | 415 kts | 293° |
| 2026-04-30 13:16 | -23.77338 | -46.78973 | 38187 ft | 415 kts | 293° |
| 2026-04-30 13:16 | -23.74782 | -46.84633 | 38182 ft | 415 kts | 293° |
| 2026-04-30 13:17 | -23.70962 | -46.93129 | 38163 ft | 415 kts | 293° |
| 2026-04-30 13:18 | -23.67139 | -47.01628 | 38152 ft | 416 kts | 293° |
| 2026-04-30 13:18 | -23.63322 | -47.10081 | 38140 ft | 416 kts | 293° |
| 2026-04-30 13:19 | -23.60746 | -47.15745 | 38137 ft | 416 kts | 293° |
| 2026-04-30 13:19 | -23.58169 | -47.21407 | 38135 ft | 416 kts | 293° |
| 2026-04-30 13:20 | -23.55593 | -47.27067 | 38133 ft | 416 kts | 293° |
| 2026-04-30 13:20 | -23.53024 | -47.32704 | 38130 ft | 417 kts | 293° |
| 2026-04-30 13:21 | -23.50497 | -47.38395 | 38125 ft | 415 kts | 289° |
| 2026-04-30 13:22 | -23.47792 | -47.47288 | 38124 ft | 414 kts | 286° |
| 2026-04-30 13:22 | -23.45679 | -47.56366 | 38146 ft | 411 kts | 272° |
| 2026-04-30 13:23 | -23.46960 | -47.65573 | 38148 ft | 413 kts | 255° |
| 2026-04-30 13:24 | -23.50219 | -47.76529 | 38123 ft | 415 kts | 254° |
| 2026-04-30 13:25 | -23.53702 | -47.88465 | 38130 ft | 414 kts | 255° |
| 2026-04-30 13:26 | -23.58016 | -48.03446 | 38130 ft | 413 kts | 255° |
| 2026-04-30 13:28 | -23.62289 | -48.18341 | 38123 ft | 412 kts | 255° |
| 2026-04-30 13:28 | -23.64849 | -48.27295 | 38127 ft | 412 kts | 255° |
| 2026-04-30 13:29 | -23.68241 | -48.39190 | 38129 ft | 411 kts | 255° |
| 2026-04-30 13:31 | -23.69938 | -48.45154 | 38137 ft | 411 kts | 255° |